Time;durP1;ratioP1;P1;durP2;ratioP2;P2;SDS_P1;SDS_P2;PMS_P1;PMS_P2;Temp;Humidity;BMP_temperature;BMP_pressure;BME280_temperature;BME280_humidity;BME280_pressure;Samples;Min_cycle;Max_cycle;Signal;HPM_P1;HPM_P2
2021/01/19 00:00:12;;;;;;;18.70;10.75;;;-2.40;99.90;;;;;;5028703;28;20049;-77
2021/01/19 00:02:39;;;;;;;21.67;11.73;;;-2.40;99.90;;;;;;5013125;28;20068;-78
2021/01/19 00:05:06;;;;;;;35.40;17.48;;;-2.60;99.90;;;;;;5008983;28;20046;-78
2021/01/19 00:07:33;;;;;;;26.48;15.32;;;-2.50;99.90;;;;;;5023731;28;20057;-78
2021/01/19 00:10:00;;;;;;;35.40;17.83;;;-2.70;99.90;;;;;;5013882;28;20041;-78
2021/01/19 00:12:26;;;;;;;29.60;17.02;;;-2.90;99.90;;;;;;5012441;28;20289;-78
2021/01/19 00:14:54;;;;;;;29.75;13.40;;;-3.00;99.90;;;;;;5013627;28;20064;-78
2021/01/19 00:17:20;;;;;;;22.27;12.15;;;-3.10;99.90;;;;;;5008985;28;20057;-78
2021/01/19 00:19:47;;;;;;;25.25;12.57;;;-3.00;99.90;;;;;;5012340;28;20061;-78
2021/01/19 00:22:13;;;;;;;25.42;13.45;;;-3.10;99.90;;;;;;5010291;28;20057;-78
2021/01/19 00:24:40;;;;;;;21.08;11.52;;;-3.00;99.90;;;;;;5030542;28;20434;-78
2021/01/19 00:27:06;;;;;;;20.45;11.65;;;-2.80;99.90;;;;;;5025153;28;20625;-78
2021/01/19 00:29:32;;;;;;;23.55;13.38;;;-2.80;99.90;;;;;;5017229;28;20050;-78
2021/01/19 00:32:01;;;;;;;32.85;15.85;;;-2.80;99.90;;;;;;5030263;28;20045;-78
2021/01/19 00:34:27;;;;;;;27.15;13.02;;;-2.80;99.90;;;;;;5029652;28;20060;-78
2021/01/19 00:36:53;;;;;;;32.53;17.05;;;-2.80;99.90;;;;;;5014071;28;20049;-78
2021/01/19 00:39:23;;;;;;;25.88;13.23;;;-2.80;99.90;;;;;;5025704;28;20132;-78
2021/01/19 00:41:50;;;;;;;28.40;14.75;;;-2.90;99.90;;;;;;5017856;28;20052;-78
2021/01/19 00:44:16;;;;;;;31.52;15.27;;;-2.80;99.90;;;;;;5022746;28;20056;-78
2021/01/19 00:46:42;;;;;;;23.92;13.85;;;-2.70;99.90;;;;;;5017514;28;20116;-78
2021/01/19 00:49:09;;;;;;;26.52;12.85;;;-2.80;99.90;;;;;;5011222;28;20399;-78
2021/01/19 00:51:36;;;;;;;28.35;15.27;;;-2.80;99.90;;;;;;5010654;28;20048;-78
2021/01/19 00:54:05;;;;;;;28.33;14.63;;;-2.80;99.90;;;;;;5014115;28;20108;-78
2021/01/19 00:56:41;;;;;;;27.58;14.23;;;-2.90;99.90;;;;;;5027249;28;20411;-78
2021/01/19 00:59:08;;;;;;;27.17;14.10;;;-3.00;99.90;;;;;;5026944;28;20128;-78
2021/01/19 01:01:42;;;;;;;28.25;14.40;;;-3.00;99.90;;;;;;5030184;28;20057;-78
2021/01/19 01:04:09;;;;;;;28.67;14.55;;;-3.00;99.90;;;;;;5010167;28;20405;-78
2021/01/19 01:06:35;;;;;;;20.10;12.95;;;-3.00;99.90;;;;;;5028906;28;20045;-78
2021/01/19 01:09:03;;;;;;;32.90;16.17;;;-2.90;99.90;;;;;;5015018;28;20047;-78
2021/01/19 01:11:37;;;;;;;28.40;15.52;;;-2.90;99.90;;;;;;5027551;28;20042;-78
2021/01/19 01:14:04;;;;;;;30.70;15.13;;;-3.00;99.90;;;;;;5009591;28;20054;-78
2021/01/19 01:16:30;;;;;;;29.27;13.32;;;-3.20;99.90;;;;;;5027941;28;20049;-78
2021/01/19 01:18:57;;;;;;;27.02;13.20;;;-3.30;99.90;;;;;;5023245;28;20519;-78
2021/01/19 01:21:23;;;;;;;27.40;14.10;;;-3.40;99.90;;;;;;5018775;28;20413;-78
2021/01/19 01:23:50;;;;;;;27.70;13.45;;;-3.40;99.90;;;;;;5029103;28;20498;-78
2021/01/19 01:26:19;;;;;;;27.95;13.90;;;-3.40;99.90;;;;;;5028502;28;20058;-78
2021/01/19 01:28:47;;;;;;;25.33;14.18;;;-3.40;99.90;;;;;;5029515;28;20061;-78
2021/01/19 01:31:18;;;;;;;20.60;10.52;;;-3.40;99.90;;;;;;5025295;28;20053;-78
2021/01/19 01:33:45;;;;;;;19.90;11.25;;;-3.40;99.90;;;;;;5027322;28;20082;-78
2021/01/19 01:36:12;;;;;;;18.35;9.80;;;-3.40;99.90;;;;;;5027577;28;20041;-78
2021/01/19 01:38:39;;;;;;;17.92;9.27;;;-3.50;99.90;;;;;;5010060;28;20053;-78
2021/01/19 01:41:19;;;;;;;18.77;8.02;;;-3.40;99.90;;;;;;5012633;28;20399;-78
2021/01/19 01:43:46;;;;;;;14.57;7.45;;;-3.30;99.90;;;;;;5025782;28;20046;-78
2021/01/19 01:46:17;;;;;;;14.57;7.88;;;-3.40;99.90;;;;;;5029287;28;20224;-78
2021/01/19 01:48:46;;;;;;;18.05;10.73;;;-3.40;99.90;;;;;;5027031;28;20042;-78
2021/01/19 01:51:14;;;;;;;25.42;10.35;;;-3.40;99.90;;;;;;5008595;28;20053;-78
2021/01/19 01:53:41;;;;;;;26.20;11.85;;;-3.40;99.90;;;;;;5012066;28;20060;-78
2021/01/19 01:56:10;;;;;;;17.65;9.13;;;-3.40;99.90;;;;;;5025102;28;20519;-78
2021/01/19 01:58:38;;;;;;;19.30;10.27;;;-3.40;99.90;;;;;;5011492;28;20546;-78
2021/01/19 02:01:05;;;;;;;23.67;11.32;;;-3.40;99.90;;;;;;5023324;28;20513;-78
2021/01/19 02:03:32;;;;;;;24.58;12.43;;;-3.50;99.90;;;;;;5027947;28;20096;-78
2021/01/19 02:05:59;;;;;;;26.25;13.15;;;-3.50;99.90;;;;;;5026457;28;20049;-78
2021/01/19 02:08:58;;;;;;;23.33;12.32;;;-3.60;99.90;;;;;;5026727;28;20120;-78
2021/01/19 02:11:32;;;;;;;21.88;10.95;;;-3.70;99.90;;;;;;4986255;28;20046;-78
2021/01/19 02:14:01;;;;;;;14.70;9.75;;;-3.80;99.90;;;;;;5006338;28;20106;-78
2021/01/19 02:16:37;;;;;;;22.08;11.98;;;-3.90;99.90;;;;;;4993550;28;20053;-78
2021/01/19 02:19:35;;;;;;;14.88;7.82;;;-3.80;99.90;;;;;;5028854;28;20072;-78
2021/01/19 02:22:39;;;;;;;15.93;8.90;;;-3.80;99.90;;;;;;5019470;28;20060;-78
2021/01/19 02:25:11;;;;;;;15.50;8.52;;;-3.90;99.90;;;;;;5022417;28;20044;-78
2021/01/19 02:28:09;;;;;;;14.25;7.57;;;-4.00;99.90;;;;;;4982122;28;667353;-78
2021/01/19 02:30:47;;;;;;;19.25;9.02;;;-4.00;99.90;;;;;;5017013;28;20449;-78
2021/01/19 02:33:52;;;;;;;18.77;9.55;;;-4.00;99.90;;;;;;5012422;28;20084;-78
2021/01/19 02:37:06;;;;;;;27.75;12.73;;;-3.90;99.90;;;;;;5012046;28;20050;-78
2021/01/19 02:39:35;;;;;;;25.85;11.75;;;-3.90;99.90;;;;;;5013755;28;20058;-78
2021/01/19 02:42:07;;;;;;;26.58;12.30;;;-3.90;99.90;;;;;;5012771;28;20053;-78
2021/01/19 02:44:38;;;;;;;19.08;10.45;;;-3.90;99.90;;;;;;5025820;28;20046;-78
2021/01/19 02:47:05;;;;;;;20.38;10.70;;;-3.80;99.90;;;;;;5022070;28;20049;-78
2021/01/19 02:49:31;;;;;;;20.05;9.18;;;-3.80;99.90;;;;;;5014106;28;20057;-78
2021/01/19 02:52:00;;;;;;;20.42;11.55;;;-3.90;99.90;;;;;;5025933;28;20041;-77
2021/01/19 02:54:27;;;;;;;25.45;10.98;;;-3.80;99.90;;;;;;5028449;28;20248;-77
2021/01/19 02:57:29;;;;;;;18.70;10.02;;;-3.80;99.90;;;;;;5024865;28;20044;-77
2021/01/19 03:00:14;;;;;;;24.50;11.13;;;-3.90;99.90;;;;;;5018679;28;20046;-77
2021/01/19 03:02:45;;;;;;;24.05;11.43;;;-4.00;99.90;;;;;;5029318;28;20064;-77
2021/01/19 03:05:15;;;;;;;24.95;10.85;;;-4.10;99.90;;;;;;5024108;28;20049;-77
2021/01/19 03:07:43;;;;;;;23.73;10.88;;;-4.20;99.90;;;;;;5012104;28;20059;-77
2021/01/19 03:10:12;;;;;;;29.25;12.02;;;-4.10;99.90;;;;;;5025991;28;20065;-77
2021/01/19 03:12:47;;;;;;;24.05;11.85;;;-4.10;99.90;;;;;;5018834;28;20479;-77
2021/01/19 03:15:15;;;;;;;19.95;11.32;;;-4.00;99.90;;;;;;5029732;28;20068;-77
2021/01/19 03:17:43;;;;;;;30.10;13.50;;;-3.90;99.90;;;;;;5026383;28;20355;-77
2021/01/19 03:20:12;;;;;;;16.77;10.40;;;-3.90;99.90;;;;;;5028868;28;20412;-77
2021/01/19 03:22:39;;;;;;;23.63;12.10;;;-4.00;99.90;;;;;;5009110;28;20454;-77
2021/01/19 03:25:07;;;;;;;24.55;12.18;;;-4.20;99.90;;;;;;5011179;28;20057;-77
2021/01/19 03:27:33;;;;;;;24.55;12.25;;;-4.20;99.90;;;;;;5024325;28;20049;-77
2021/01/19 03:30:00;;;;;;;31.48;13.32;;;-4.40;99.90;;;;;;5010130;28;20056;-77
2021/01/19 03:32:26;;;;;;;25.75;12.27;;;-4.50;99.90;;;;;;5008140;28;20045;-77
2021/01/19 03:34:53;;;;;;;20.65;10.60;;;-4.60;99.90;;;;;;5025114;28;20509;-77
2021/01/19 03:37:19;;;;;;;18.13;10.38;;;-4.50;99.90;;;;;;5028013;28;20053;-77
2021/01/19 03:39:45;;;;;;;19.30;10.25;;;-4.50;99.90;;;;;;5025717;28;20408;-77
2021/01/19 03:42:12;;;;;;;20.58;9.38;;;-4.50;99.90;;;;;;5010719;28;20056;-77
2021/01/19 03:44:38;;;;;;;18.55;8.48;;;-4.50;99.90;;;;;;5025277;28;20521;-77
2021/01/19 03:47:05;;;;;;;18.02;9.68;;;-4.50;99.90;;;;;;5009104;28;20046;-77
2021/01/19 03:49:31;;;;;;;14.77;7.22;;;-4.50;99.90;;;;;;5025482;28;20042;-77
2021/01/19 03:51:57;;;;;;;11.88;6.20;;;-4.60;99.90;;;;;;5007620;28;20052;-77
2021/01/19 03:54:24;;;;;;;9.07;5.57;;;-4.60;99.90;;;;;;5010517;28;20398;-77
2021/01/19 03:56:50;;;;;;;12.88;6.97;;;-4.40;99.90;;;;;;5021932;28;20037;-77
2021/01/19 03:59:18;;;;;;;10.10;5.28;;;-4.40;99.90;;;;;;5002607;28;20418;-77
2021/01/19 04:01:47;;;;;;;8.27;5.03;;;-4.30;99.90;;;;;;5008243;28;20046;-77
2021/01/19 04:04:13;;;;;;;9.38;4.72;;;-4.30;99.90;;;;;;5018141;28;20538;-77
2021/01/19 04:06:39;;;;;;;14.93;5.03;;;-4.30;99.90;;;;;;5027191;28;20053;-77
2021/01/19 04:09:06;;;;;;;8.75;4.40;;;-4.40;99.90;;;;;;5026404;28;20389;-77
2021/01/19 04:11:32;;;;;;;9.27;4.03;;;-4.40;99.90;;;;;;5028848;28;20053;-77
2021/01/19 04:13:59;;;;;;;8.55;4.57;;;-4.30;99.90;;;;;;5028631;28;20049;-77
2021/01/19 04:16:25;;;;;;;9.38;4.63;;;-4.40;99.90;;;;;;5015784;28;20057;-77
2021/01/19 04:18:52;;;;;;;14.43;8.68;;;-4.30;99.90;;;;;;5028224;28;20076;-77
2021/01/19 04:21:18;;;;;;;12.80;7.88;;;-4.20;99.90;;;;;;5000764;28;20050;-77
2021/01/19 04:23:44;;;;;;;13.90;5.32;;;-4.20;99.90;;;;;;5009658;28;20161;-77
2021/01/19 04:26:11;;;;;;;15.77;6.00;;;-4.30;99.90;;;;;;5006176;28;20056;-77
2021/01/19 04:28:38;;;;;;;12.05;5.85;;;-4.40;99.90;;;;;;5030279;28;20459;-77
2021/01/19 04:31:05;;;;;;;18.17;7.13;;;-4.50;99.90;;;;;;5028889;28;20045;-77
2021/01/19 04:33:32;;;;;;;15.63;5.70;;;-4.40;99.90;;;;;;4998930;28;20042;-77
2021/01/19 04:35:58;;;;;;;12.30;6.68;;;-4.40;99.90;;;;;;5008681;28;20053;-77
2021/01/19 04:38:25;;;;;;;10.57;5.97;;;-4.30;99.90;;;;;;5025648;28;20053;-77
2021/01/19 04:40:51;;;;;;;15.55;7.22;;;-4.30;99.90;;;;;;5011621;28;20407;-77
2021/01/19 04:43:18;;;;;;;16.13;6.95;;;-4.30;99.90;;;;;;5027817;28;20053;-77
2021/01/19 04:45:47;;;;;;;18.45;7.72;;;-4.30;99.90;;;;;;5019974;28;20471;-77
2021/01/19 04:48:14;;;;;;;8.80;4.88;;;-4.30;99.90;;;;;;5022381;28;20487;-77
2021/01/19 04:50:41;;;;;;;14.07;6.55;;;-4.30;99.90;;;;;;5030446;28;20037;-77
2021/01/19 04:53:13;;;;;;;24.00;12.45;;;-4.40;99.90;;;;;;5028443;28;20049;-77
2021/01/19 04:55:51;;;;;;;50.33;24.50;;;-4.50;99.90;;;;;;5029360;28;20049;-77
2021/01/19 04:58:22;;;;;;;50.80;23.90;;;-4.60;99.90;;;;;;5028265;28;20053;-77
2021/01/19 05:01:06;;;;;;;39.75;20.08;;;-4.60;99.90;;;;;;5011097;28;20049;-77
2021/01/19 05:03:57;;;;;;;27.98;13.20;;;-4.70;99.90;;;;;;5029972;28;20138;-77
2021/01/19 05:06:57;;;;;;;28.27;14.52;;;-4.90;99.90;;;;;;5027197;28;20067;-77
2021/01/19 05:09:35;;;;;;;21.73;10.20;;;-5.10;99.90;;;;;;5011360;28;20255;-77
2021/01/19 05:12:05;;;;;;;20.88;10.50;;;-5.10;99.90;;;;;;5031742;28;20053;-77
2021/01/19 05:14:39;;;;;;;22.63;10.05;;;-5.00;99.90;;;;;;5026702;28;20049;-77
2021/01/19 05:17:06;;;;;;;14.80;8.93;;;-4.90;99.90;;;;;;5014336;28;20065;-77
2021/01/19 05:19:33;;;;;;;15.15;9.45;;;-4.90;99.90;;;;;;5008488;28;20053;-77
2021/01/19 05:22:00;;;;;;;12.60;7.70;;;-4.90;99.90;;;;;;5011873;28;20048;-77
2021/01/19 05:24:26;;;;;;;16.77;9.77;;;-4.80;99.90;;;;;;5001558;28;20045;-77
2021/01/19 05:26:52;;;;;;;19.17;9.00;;;-4.70;99.90;;;;;;5020916;28;20053;-77
2021/01/19 05:29:20;;;;;;;20.73;10.07;;;-4.70;99.90;;;;;;5030122;28;20057;-77
2021/01/19 05:31:51;;;;;;;13.40;7.88;;;-4.80;99.90;;;;;;5010244;28;20426;-77
2021/01/19 05:34:17;;;;;;;17.55;8.20;;;-4.80;99.90;;;;;;5029352;28;20045;-77
2021/01/19 05:36:45;;;;;;;16.75;8.48;;;-4.90;99.90;;;;;;5028888;28;20050;-78
2021/01/19 05:39:15;;;;;;;17.02;9.20;;;-5.10;99.90;;;;;;5025831;28;20057;-78
2021/01/19 05:41:42;;;;;;;13.07;8.23;;;-5.20;99.90;;;;;;5013582;28;20056;-78
2021/01/19 05:44:16;;;;;;;13.85;8.30;;;-5.30;99.90;;;;;;5010893;28;20487;-78
2021/01/19 05:47:04;;;;;;;16.73;8.15;;;-5.10;99.90;;;;;;5011520;28;20046;-78
2021/01/19 05:49:38;;;;;;;21.10;9.60;;;-5.00;99.90;;;;;;5006767;28;20049;-78
2021/01/19 05:52:13;;;;;;;26.73;10.50;;;-5.00;99.90;;;;;;5019425;28;20071;-78
2021/01/19 05:54:43;;;;;;;22.23;10.13;;;-5.00;99.90;;;;;;5027673;28;20041;-78
2021/01/19 05:57:11;;;;;;;18.60;9.52;;;-4.90;99.90;;;;;;5026947;28;20103;-78
2021/01/19 05:59:51;;;;;;;18.63;9.38;;;-5.00;99.90;;;;;;5027178;28;20075;-78
2021/01/19 06:02:21;;;;;;;17.58;8.85;;;-5.00;99.90;;;;;;5024043;28;20463;-78
2021/01/19 06:04:53;;;;;;;17.92;7.97;;;-5.00;99.90;;;;;;5019225;28;20461;-78
2021/01/19 06:07:22;;;;;;;21.30;10.27;;;-5.00;99.90;;;;;;5028454;28;20049;-78
2021/01/19 06:09:50;;;;;;;18.42;9.48;;;-5.00;99.90;;;;;;5008609;28;20497;-77
2021/01/19 06:12:18;;;;;;;19.10;11.35;;;-4.90;99.90;;;;;;5028822;28;20473;-77
2021/01/19 06:14:49;;;;;;;18.73;10.88;;;-4.90;99.90;;;;;;5022553;28;20045;-77
2021/01/19 06:17:21;;;;;;;15.45;10.23;;;-5.00;99.90;;;;;;5016827;28;20050;-77
2021/01/19 06:19:53;;;;;;;21.45;11.57;;;-5.00;99.90;;;;;;5024653;28;20049;-77
2021/01/19 06:22:24;;;;;;;22.48;10.70;;;-4.90;99.90;;;;;;5025681;28;20049;-77
2021/01/19 06:24:56;;;;;;;28.00;17.08;;;-4.90;99.90;;;;;;5028600;28;20058;-77
2021/01/19 06:27:22;;;;;;;34.53;10.38;;;-4.90;99.90;;;;;;5005660;28;20421;-78
2021/01/19 06:29:51;;;;;;;22.85;13.32;;;-4.90;99.90;;;;;;5030719;28;20038;-78
2021/01/19 06:32:18;;;;;;;12.55;7.88;;;-4.90;99.90;;;;;;5009736;28;20054;-78
2021/01/19 06:34:45;;;;;;;15.18;6.28;;;-4.80;99.90;;;;;;5010080;28;20042;-78
2021/01/19 06:37:28;;;;;;;9.95;6.85;;;-4.70;99.90;;;;;;5011501;28;20048;-78
2021/01/19 06:39:56;;;;;;;;;;;-4.70;99.90;;;;;;5028775;28;20095;-78
2021/01/19 06:42:29;;;;;;;21.33;10.25;;;-4.70;99.90;;;;;;5011890;28;19928;-78
2021/01/19 06:44:57;;;;;;;;;;;-4.70;99.90;;;;;;5007037;28;20044;-78
2021/01/19 06:47:23;;;;;;;27.85;13.93;;;-4.80;99.90;;;;;;5027223;28;19925;-78
2021/01/19 06:49:56;;;;;;;15.55;8.50;;;-4.90;99.90;;;;;;5008959;28;20077;-78
2021/01/19 06:52:25;;;;;;;10.52;5.65;;;-4.90;99.90;;;;;;5002768;28;20045;-78
2021/01/19 06:54:57;;;;;;;18.83;8.07;;;-4.90;99.90;;;;;;5011425;28;20077;-78
2021/01/19 06:57:29;;;;;;;19.13;7.80;;;-4.80;99.90;;;;;;5011062;28;20053;-78
2021/01/19 07:00:11;;;;;;;9.10;5.35;;;-4.80;99.90;;;;;;5012627;28;20080;-78
2021/01/19 07:02:40;;;;;;;13.07;5.40;;;-4.80;99.90;;;;;;5028794;28;20501;-78
2021/01/19 07:05:13;;;;;;;15.48;8.05;;;-4.80;99.90;;;;;;5012531;28;20052;-78
2021/01/19 07:07:48;;;;;;;19.40;10.52;;;-4.80;99.90;;;;;;5015957;28;20141;-78
2021/01/19 07:10:40;;;;;;;31.98;15.85;;;-4.90;99.90;;;;;;5010128;28;20045;-78
2021/01/19 07:13:07;;;;;;;41.88;23.27;;;-4.80;99.90;;;;;;4978613;28;20069;-78
2021/01/19 07:16:04;;;;;;;37.45;22.30;;;-4.90;99.90;;;;;;5011163;28;20045;-78
2021/01/19 07:18:48;;;;;;;14.40;8.07;;;-4.80;99.90;;;;;;5028734;28;20502;-78
2021/01/19 07:21:17;;;;;;;26.92;13.38;;;-4.90;99.90;;;;;;5027838;28;20054;-78
2021/01/19 07:23:49;;;;;;;21.67;11.18;;;-4.80;99.90;;;;;;5007958;28;20054;-78
2021/01/19 07:26:23;;;;;;;25.85;14.45;;;-4.80;99.90;;;;;;5028216;28;20065;-78
2021/01/19 07:28:51;;;;;;;23.23;13.48;;;-4.80;99.90;;;;;;5028619;28;20057;-78
2021/01/19 07:31:19;;;;;;;25.67;14.00;;;-4.70;99.90;;;;;;5026176;28;20054;-78
2021/01/19 07:33:52;;;;;;;18.52;10.55;;;-4.60;99.90;;;;;;5013037;28;20042;-78
2021/01/19 07:36:21;;;;;;;18.13;10.07;;;-4.60;99.90;;;;;;5010556;28;20156;-78
2021/01/19 07:38:51;;;;;;;28.55;13.25;;;-4.50;99.90;;;;;;5028996;28;20087;-78
2021/01/19 07:41:30;;;;;;;41.78;21.45;;;-4.40;99.90;;;;;;5013178;28;20087;-78
2021/01/19 07:43:57;;;;;;;42.92;22.35;;;-4.40;99.90;;;;;;5011541;28;20060;-78
2021/01/19 07:46:38;;;;;;;50.22;24.73;;;-4.50;99.90;;;;;;5025488;28;20096;-78
2021/01/19 07:49:06;;;;;;;92.75;45.13;;;-4.40;99.90;;;;;;5016306;28;20046;-78
2021/01/19 07:51:46;;;;;;;73.75;40.92;;;-4.40;99.90;;;;;;5033450;28;20049;-78
2021/01/19 07:54:35;;;;;;;88.47;44.78;;;-4.40;99.90;;;;;;5033255;28;20073;-78
2021/01/19 07:57:13;;;;;;;38.60;22.80;;;-4.20;99.90;;;;;;5012979;28;20049;-78
2021/01/19 07:59:41;;;;;;;26.30;14.60;;;-4.10;99.90;;;;;;5033063;28;20119;-78
2021/01/19 08:02:08;;;;;;;51.72;24.50;;;-3.90;99.90;;;;;;5031133;28;20526;-78
2021/01/19 08:04:37;;;;;;;43.33;22.13;;;-3.80;99.90;;;;;;5017060;28;20483;-78
2021/01/19 08:07:14;;;;;;;48.58;24.27;;;-3.80;99.90;;;;;;5015275;28;20046;-78
2021/01/19 08:09:47;;;;;;;53.65;30.05;;;-3.80;99.90;;;;;;5031928;28;20048;-78
2021/01/19 08:12:19;;;;;;;66.82;31.73;;;-4.00;99.90;;;;;;5032792;28;20049;-78
2021/01/19 08:14:49;;;;;;;63.15;30.60;;;-4.00;99.90;;;;;;5028753;28;20053;-78
2021/01/19 08:17:15;;;;;;;67.63;31.25;;;-4.00;99.90;;;;;;5016234;28;20052;-78
2021/01/19 08:19:44;;;;;;;75.50;31.63;;;-4.00;99.90;;;;;;5029096;28;20079;-78
2021/01/19 08:22:12;;;;;;;51.55;25.70;;;-4.00;99.90;;;;;;5014091;28;20045;-78
2021/01/19 08:24:44;;;;;;;56.08;26.80;;;-4.00;99.90;;;;;;5016734;28;20091;-78
2021/01/19 08:27:11;;;;;;;51.95;28.13;;;-3.90;99.90;;;;;;5015971;28;20073;-78
2021/01/19 08:29:38;;;;;;;13.60;6.15;;;-3.80;99.90;;;;;;5017392;28;20077;-78
2021/01/19 08:32:07;;;;;;;1.65;1.10;;;-3.70;99.90;;;;;;5016202;28;20046;-78
2021/01/19 08:34:36;;;;;;;3.63;1.55;;;-3.60;99.90;;;;;;5034180;28;20763;-78
2021/01/19 08:37:03;;;;;;;3.92;2.80;;;-3.40;99.90;;;;;;5030955;28;20077;-78
2021/01/19 08:39:30;;;;;;;4.80;2.15;;;-3.20;99.90;;;;;;5031261;28;20112;-78
2021/01/19 08:41:57;;;;;;;8.05;4.57;;;-3.10;99.90;;;;;;5025300;28;20071;-78
2021/01/19 08:44:32;;;;;;;8.90;5.32;;;-3.00;99.90;;;;;;5007831;28;20052;-78
2021/01/19 08:46:58;;;;;;;14.82;6.18;;;-3.00;99.90;;;;;;5005405;28;20497;-78
2021/01/19 08:49:34;;;;;;;7.88;4.40;;;-2.90;99.90;;;;;;5029213;28;20091;-78
2021/01/19 08:52:02;;;;;;;9.13;4.63;;;-2.80;99.90;;;;;;5013046;28;20080;-78
2021/01/19 08:54:32;;;;;;;17.20;10.65;;;-2.80;99.90;;;;;;5031288;28;20053;-78
2021/01/19 08:56:58;;;;;;;13.75;6.57;;;-2.70;99.90;;;;;;5029279;28;20087;-79
2021/01/19 08:59:52;;;;;;;14.68;6.18;;;-2.70;99.90;;;;;;4990788;28;20056;-78
2021/01/19 09:02:29;;;;;;;13.52;4.57;;;-2.60;99.90;;;;;;5009284;28;20053;-78
2021/01/19 09:04:55;;;;;;;8.27;4.18;;;-2.50;99.90;;;;;;4996113;28;20089;-78
2021/01/19 09:07:28;;;;;;;12.55;7.97;;;-2.50;99.90;;;;;;5013337;28;20041;-78
2021/01/19 09:09:55;;;;;;;8.40;3.67;;;-2.40;99.90;;;;;;5029760;28;20049;-78
2021/01/19 09:12:22;;;;;;;16.27;5.30;;;-2.40;99.90;;;;;;5012324;28;20084;-78
2021/01/19 09:14:53;;;;;;;19.10;5.80;;;-2.30;99.90;;;;;;5005776;28;20117;-78
2021/01/19 09:17:27;;;;;;;13.88;6.13;;;-2.20;99.90;;;;;;5030754;28;20053;-78
2021/01/19 09:20:20;;;;;;;10.00;4.57;;;-2.10;99.90;;;;;;5007187;28;20073;-78
2021/01/19 09:22:52;;;;;;;13.65;6.03;;;-2.00;99.90;;;;;;5001583;28;20430;-78
2021/01/19 09:25:21;;;;;;;9.25;3.58;;;-1.90;99.90;;;;;;5013231;28;20050;-78
2021/01/19 09:27:47;;;;;;;8.90;4.57;;;-1.80;99.90;;;;;;5008705;28;20053;-78
2021/01/19 09:30:17;;;;;;;3.17;1.20;;;-1.40;99.90;;;;;;5031897;28;20053;-78
2021/01/19 09:32:44;;;;;;;10.27;1.40;;;-1.40;99.90;;;;;;5026384;28;20474;-78
2021/01/19 09:35:14;;;;;;;4.72;1.65;;;-1.10;99.90;;;;;;5017841;28;20990;-78
2021/01/19 09:37:41;;;;;;;13.10;6.40;;;-0.90;99.90;;;;;;5024917;28;20042;-78
2021/01/19 09:40:08;;;;;;;11.68;6.53;;;-0.70;99.90;;;;;;5028648;28;20068;-78
2021/01/19 09:42:41;;;;;;;19.52;8.60;;;-0.50;99.90;;;;;;5012442;28;20049;-78
2021/01/19 09:45:12;;;;;;;14.65;7.05;;;-0.30;99.90;;;;;;5007358;28;20045;-78
2021/01/19 09:47:41;;;;;;;11.30;5.07;;;-0.20;99.90;;;;;;5031382;28;20466;-78
2021/01/19 09:50:09;;;;;;;8.30;3.65;;;-0.10;99.90;;;;;;5009664;28;20112;-78
2021/01/19 09:52:36;;;;;;;9.70;5.07;;;0.00;99.90;;;;;;5011449;28;20046;-78
2021/01/19 09:55:13;;;;;;;8.50;6.22;;;0.30;99.90;;;;;;5020697;28;20045;-78
2021/01/19 09:57:40;;;;;;;13.38;7.15;;;0.40;99.90;;;;;;5002138;28;20057;-78
2021/01/19 10:00:09;;;;;;;9.20;5.75;;;0.40;99.90;;;;;;5018093;28;20057;-78
2021/01/19 10:02:38;;;;;;;3.90;3.08;;;0.40;99.90;;;;;;5027028;28;20127;-78
2021/01/19 10:05:07;;;;;;;7.70;4.95;;;0.80;99.90;;;;;;5026265;28;20133;-78
2021/01/19 10:07:34;;;;;;;12.02;5.07;;;0.90;99.90;;;;;;5023379;28;20050;-78
2021/01/19 10:10:14;;;;;;;4.68;2.33;;;1.10;99.90;;;;;;5013030;28;20053;-78
2021/01/19 10:12:41;;;;;;;8.80;2.33;;;1.40;99.90;;;;;;5010712;28;20141;-78
2021/01/19 10:15:10;;;;;;;9.95;5.85;;;1.60;99.90;;;;;;5009612;28;20048;-78
2021/01/19 10:17:37;;;;;;;18.25;9.30;;;1.70;99.90;;;;;;5011294;28;20052;-78
2021/01/19 10:20:10;;;;;;;13.93;9.02;;;1.60;99.90;;;;;;5022889;28;20120;-78
2021/01/19 10:22:39;;;;;;;20.40;11.33;;;1.50;99.90;;;;;;5010088;28;20050;-78
2021/01/19 10:25:07;;;;;;;20.20;12.32;;;1.60;99.90;;;;;;5011928;28;20053;-78
2021/01/19 10:27:42;;;;;;;17.73;10.77;;;1.50;99.90;;;;;;5008240;28;20418;-78
2021/01/19 10:30:11;;;;;;;12.23;7.75;;;1.60;99.90;;;;;;5030352;28;20053;-78
2021/01/19 10:33:04;;;;;;;11.60;5.97;;;1.60;99.90;;;;;;5007726;28;20045;-78
2021/01/19 10:35:36;;;;;;;10.23;4.40;;;1.60;99.90;;;;;;5024455;28;20059;-78
2021/01/19 10:38:03;;;;;;;4.43;2.75;;;1.60;99.90;;;;;;5028584;28;20280;-78
2021/01/19 10:40:30;;;;;;;4.30;2.17;;;1.70;99.90;;;;;;5009185;28;20053;-78
2021/01/19 10:42:59;;;;;;;8.52;3.55;;;1.80;99.90;;;;;;5027566;28;20057;-78
2021/01/19 10:45:31;;;;;;;11.68;4.65;;;1.90;99.90;;;;;;5024021;28;20049;-78
2021/01/19 10:47:59;;;;;;;16.25;10.63;;;2.00;99.90;;;;;;5028801;28;20069;-78
2021/01/19 10:50:28;;;;;;;10.20;6.47;;;2.10;99.90;;;;;;5024783;28;20073;-78
2021/01/19 10:53:00;;;;;;;3.40;2.30;;;2.20;99.90;;;;;;5027230;28;20494;-78
2021/01/19 10:55:34;;;;;;;6.25;2.53;;;2.30;99.90;;;;;;5018280;28;20120;-78
2021/01/19 10:58:02;;;;;;;6.90;2.75;;;2.40;99.90;;;;;;5017001;28;20049;-78
2021/01/19 11:00:31;;;;;;;5.82;3.78;;;2.60;99.90;;;;;;5028769;28;20053;-78
2021/01/19 11:02:57;;;;;;;11.82;6.88;;;2.90;99.90;;;;;;5026224;28;20083;-78
2021/01/19 11:05:25;;;;;;;9.75;6.60;;;3.20;99.90;;;;;;5008516;28;20426;-78
2021/01/19 11:07:54;;;;;;;11.75;6.25;;;3.60;99.90;;;;;;5023575;28;20471;-78
2021/01/19 11:10:25;;;;;;;11.00;4.90;;;3.70;99.90;;;;;;5007900;28;20050;-78
2021/01/19 11:12:53;;;;;;;8.27;4.50;;;3.80;99.90;;;;;;5028137;28;20153;-78
2021/01/19 11:15:20;;;;;;;12.27;6.10;;;4.00;99.90;;;;;;5003955;28;20049;-78
2021/01/19 11:17:51;;;;;;;9.90;5.20;;;4.30;99.90;;;;;;5010814;28;20410;-78
2021/01/19 11:20:19;;;;;;;4.63;2.45;;;4.30;99.90;;;;;;5020942;28;20045;-78
2021/01/19 11:22:47;;;;;;;5.47;3.00;;;4.40;99.90;;;;;;5028379;28;20515;-78
2021/01/19 11:25:15;;;;;;;4.20;3.03;;;4.70;99.90;;;;;;5030073;28;20068;-78
2021/01/19 11:27:42;;;;;;;8.38;4.63;;;5.00;99.90;;;;;;5011828;28;20499;-78
2021/01/19 11:30:09;;;;;;;5.20;2.88;;;5.20;99.90;;;;;;5031389;28;20056;-78
2021/01/19 11:32:36;;;;;;;15.13;8.85;;;5.50;99.90;;;;;;5010913;28;20414;-78
2021/01/19 11:35:04;;;;;;;9.75;6.53;;;5.60;99.90;;;;;;5031411;28;20552;-78
2021/01/19 11:37:30;;;;;;;8.80;6.78;;;5.70;99.90;;;;;;5031522;28;20136;-78
2021/01/19 11:39:57;;;;;;;10.38;7.10;;;5.90;99.90;;;;;;5032365;28;20483;-78
2021/01/19 11:42:23;;;;;;;3.15;1.13;;;6.20;99.90;;;;;;5012452;28;20059;-78
2021/01/19 11:44:50;;;;;;;1.75;1.48;;;6.30;99.90;;;;;;5013241;28;20049;-78
2021/01/19 11:47:17;;;;;;;3.33;1.48;;;6.40;99.90;;;;;;5015259;28;20076;-78
2021/01/19 11:49:48;;;;;;;2.40;1.60;;;6.20;99.90;;;;;;5029893;28;20478;-78
2021/01/19 11:52:19;;;;;;;5.63;1.80;;;6.10;99.90;;;;;;5015908;28;20065;-78
2021/01/19 11:54:47;;;;;;;9.73;2.17;;;6.10;99.90;;;;;;5009752;28;20483;-78
2021/01/19 11:57:14;;;;;;;4.57;2.10;;;6.10;99.90;;;;;;5014597;28;20064;-78
2021/01/19 11:59:41;;;;;;;3.83;1.60;;;6.20;99.90;;;;;;5026995;28;20132;-78
2021/01/19 12:02:07;;;;;;;3.85;2.05;;;6.40;99.90;;;;;;5042382;28;20511;-78
2021/01/19 12:04:34;;;;;;;3.25;1.73;;;6.70;99.90;;;;;;5032275;28;20053;-78
2021/01/19 12:07:02;;;;;;;3.17;1.50;;;6.70;99.90;;;;;;5027039;28;20041;-78
2021/01/19 12:09:29;;;;;;;4.72;1.80;;;6.60;99.90;;;;;;5015883;28;20045;-78
2021/01/19 12:11:55;;;;;;;2.67;1.10;;;6.70;99.90;;;;;;5028966;28;20045;-78
2021/01/19 12:14:23;;;;;;;2.88;1.13;;;6.80;99.90;;;;;;5014465;28;20059;-78
2021/01/19 12:16:56;;;;;;;3.55;1.80;;;6.80;99.90;;;;;;5025270;28;20634;-78
2021/01/19 12:19:25;;;;;;;3.38;1.42;;;7.10;99.90;;;;;;5028851;28;20049;-78
2021/01/19 12:21:58;;;;;;;5.82;3.28;;;7.40;99.90;;;;;;5011304;28;20059;-78
2021/01/19 12:24:26;;;;;;;4.53;1.60;;;7.50;99.90;;;;;;5011147;28;20053;-78
2021/01/19 12:26:57;;;;;;;8.52;4.03;;;7.60;99.90;;;;;;5012559;28;20052;-78
2021/01/19 12:29:27;;;;;;;9.27;2.15;;;7.70;99.90;;;;;;5028103;28;20137;-78
2021/01/19 12:32:02;;;;;;;5.07;2.25;;;7.60;99.90;;;;;;5014363;28;20087;-78
2021/01/19 12:34:29;;;;;;;8.13;1.95;;;7.60;99.90;;;;;;5014988;28;20069;-78
2021/01/19 12:36:57;;;;;;;6.88;2.95;;;7.70;99.90;;;;;;5012366;28;20057;-78
2021/01/19 12:39:23;;;;;;;3.50;1.45;;;7.60;99.90;;;;;;5013848;28;20049;-78
2021/01/19 12:41:51;;;;;;;5.03;1.60;;;7.70;99.90;;;;;;5029993;28;21081;-78
2021/01/19 12:44:17;;;;;;;2.35;1.73;;;7.60;99.90;;;;;;5032062;28;20081;-78
2021/01/19 12:46:44;;;;;;;3.20;2.20;;;7.60;99.90;;;;;;5011439;28;20048;-78
2021/01/19 12:49:11;;;;;;;2.80;1.38;;;7.70;99.90;;;;;;5012294;28;20055;-78
2021/01/19 12:51:37;;;;;;;5.50;1.73;;;7.60;99.90;;;;;;5029197;28;20045;-78
2021/01/19 12:54:04;;;;;;;3.90;1.85;;;7.80;99.90;;;;;;5027971;28;20509;-78